createdAt,value
2024-02-24T00:00:34.119Z,6.34
2024-02-24T00:03:02.952Z,6.33
2024-02-24T00:05:31.974Z,6.33
2024-02-24T00:08:01.596Z,6.26
2024-02-24T00:10:30.515Z,6.22
2024-02-24T00:12:59.663Z,6.20
2024-02-24T00:15:29.142Z,6.17
2024-02-24T00:17:58.116Z,6.13
2024-02-24T00:20:27.296Z,6.09
2024-02-24T00:22:56.171Z,6.03
2024-02-24T00:25:25.076Z,5.99
2024-02-24T00:27:54.058Z,5.97
2024-02-24T00:30:23.051Z,5.93
2024-02-24T00:32:52.006Z,5.87
2024-02-24T00:35:20.943Z,5.80
2024-02-24T00:37:49.900Z,5.76
2024-02-24T00:40:18.978Z,5.72
2024-02-24T00:42:48.011Z,5.68
2024-02-24T00:45:17.452Z,5.64
2024-02-24T00:47:46.545Z,5.60
2024-02-24T00:50:16.072Z,5.57
2024-02-24T00:52:44.998Z,5.52
2024-02-24T00:55:13.952Z,5.48
2024-02-24T00:57:42.728Z,5.43
2024-02-24T01:00:12.523Z,5.37
2024-02-24T01:02:43.907Z,5.33
2024-02-24T01:05:13.323Z,5.29
2024-02-24T01:07:42.492Z,5.25
2024-02-24T01:13:38.202Z,5.13
2024-02-24T01:16:06.757Z,5.12
2024-02-24T01:18:34.939Z,5.09
2024-02-24T01:21:05.054Z,5.07
2024-02-24T01:23:34.469Z,5.03
2024-02-24T01:26:04.077Z,4.99
2024-02-24T01:28:32.641Z,4.95
2024-02-24T01:31:01.486Z,4.93
2024-02-24T01:33:30.331Z,4.90
2024-02-24T01:35:58.611Z,4.88
2024-02-24T01:38:26.938Z,4.87
2024-02-24T01:40:55.162Z,4.86
2024-02-24T01:43:30.764Z,4.84
2024-02-24T01:45:59.025Z,4.82
2024-02-24T01:48:27.320Z,4.82
2024-02-24T01:50:56.862Z,4.80
2024-02-24T01:53:26.825Z,4.78
2024-02-24T01:55:56.656Z,4.76
2024-02-24T01:58:27.199Z,4.75
2024-02-24T02:00:58.438Z,4.72
2024-02-24T02:03:27.019Z,4.69
2024-02-24T02:05:56.323Z,4.69
2024-02-24T02:08:24.571Z,4.69
2024-02-24T02:10:56.864Z,4.67
2024-02-24T02:13:25.768Z,4.66
2024-02-24T02:15:59.028Z,4.64
2024-02-24T02:18:28.974Z,4.61
2024-02-24T02:24:06.774Z,4.51
2024-02-24T02:26:36.034Z,4.48
2024-02-24T02:29:05.220Z,4.46
2024-02-24T02:31:34.357Z,4.45
2024-02-24T02:34:03.445Z,4.43
2024-02-24T02:36:32.423Z,4.40
2024-02-24T02:39:01.298Z,4.39
2024-02-24T02:44:35.609Z,4.36
2024-02-24T02:47:14.511Z,4.35
2024-02-24T02:49:49.596Z,4.33
2024-02-24T02:52:18.601Z,4.33
2024-02-24T02:55:43.326Z,4.31
2024-02-24T02:58:13.829Z,4.29
2024-02-24T03:00:42.948Z,4.27
2024-02-24T03:03:11.866Z,4.25
2024-02-24T03:05:41.042Z,4.23
2024-02-24T03:08:10.165Z,4.23
2024-02-24T03:10:39.791Z,4.22
2024-02-24T03:13:08.930Z,4.20
2024-02-24T03:15:38.287Z,4.20
2024-02-24T03:18:07.522Z,4.19
2024-02-24T03:20:36.606Z,4.18
2024-02-24T03:23:07.009Z,4.17
2024-02-24T03:25:36.198Z,4.16
2024-02-24T03:28:06.430Z,4.14
2024-02-24T03:30:35.488Z,4.14
2024-02-24T03:33:05.126Z,4.11
2024-02-24T03:35:34.387Z,4.11
2024-02-24T03:38:03.426Z,4.11
2024-02-24T03:40:32.794Z,4.11
2024-02-24T03:43:01.801Z,4.09
2024-02-24T03:45:30.854Z,4.11
2024-02-24T03:47:59.851Z,4.09
2024-02-24T03:50:29.075Z,4.09
2024-02-24T03:52:58.189Z,4.08
2024-02-24T03:55:26.982Z,4.08
2024-02-24T03:57:56.029Z,4.07
2024-02-24T04:00:25.018Z,4.07
2024-02-24T04:02:54.028Z,4.07
2024-02-24T04:05:23.259Z,4.08
2024-02-24T04:07:52.332Z,4.08
2024-02-24T04:10:21.444Z,4.09
2024-02-24T04:12:50.547Z,4.11
2024-02-24T04:15:24.332Z,4.12
2024-02-24T04:17:53.422Z,4.13
2024-02-24T04:20:22.737Z,4.14
2024-02-24T04:22:51.786Z,4.14
2024-02-24T04:25:37.218Z,4.16
2024-02-24T04:28:06.568Z,4.17
2024-02-24T04:30:37.277Z,4.17
2024-02-24T04:33:06.768Z,4.17
2024-02-24T04:35:36.605Z,4.17
2024-02-24T04:38:08.656Z,4.18
2024-02-24T04:40:38.166Z,4.18
2024-02-24T04:43:07.348Z,4.18
2024-02-24T04:45:37.730Z,4.18
2024-02-24T04:48:07.538Z,4.18
2024-02-24T04:50:36.757Z,4.19
2024-02-24T04:53:06.325Z,4.18
2024-02-24T04:55:35.280Z,4.19
2024-02-24T04:58:04.555Z,4.18
2024-02-24T05:00:34.607Z,4.17
2024-02-24T05:03:04.613Z,4.17
2024-02-24T05:05:35.906Z,4.18
2024-02-24T05:11:28.573Z,4.17
2024-02-24T05:13:57.579Z,4.16
2024-02-24T05:16:27.392Z,4.15
2024-02-24T05:18:57.961Z,4.14
2024-02-24T05:21:27.378Z,4.13
2024-02-24T05:23:59.933Z,4.11
2024-02-24T05:26:31.706Z,4.11
2024-02-24T05:29:02.970Z,4.10
2024-02-24T05:31:32.439Z,4.11
2024-02-24T05:34:01.712Z,4.13
2024-02-24T05:36:30.722Z,4.13
2024-02-24T05:39:01.168Z,4.12
2024-02-24T05:41:30.280Z,4.11
2024-02-24T05:44:00.245Z,4.11
2024-02-24T05:46:29.318Z,4.13
2024-02-24T05:48:59.198Z,4.13
2024-02-24T05:51:29.241Z,4.11
2024-02-24T05:53:58.631Z,4.10
2024-02-24T05:56:29.341Z,4.10
2024-02-24T05:58:58.274Z,4.09
2024-02-24T06:01:27.310Z,4.07
2024-02-24T06:03:56.988Z,4.07
2024-02-24T06:06:26.257Z,4.07
2024-02-24T06:08:55.728Z,4.07
2024-02-24T06:11:24.786Z,4.08
2024-02-24T06:17:20.591Z,4.10
2024-02-24T06:19:48.893Z,4.10
2024-02-24T06:22:17.350Z,4.09
2024-02-24T06:24:46.048Z,4.08
2024-02-24T06:27:14.376Z,4.08
2024-02-24T06:29:43.353Z,4.07
2024-02-24T06:32:12.097Z,4.08
2024-02-24T06:34:47.853Z,4.07
2024-02-24T06:37:16.414Z,4.06
2024-02-24T06:39:45.026Z,4.05
2024-02-24T06:42:13.676Z,4.04
2024-02-24T06:44:43.222Z,4.04
2024-02-24T06:47:21.344Z,4.03
2024-02-24T06:49:57.365Z,4.00
2024-02-24T06:52:25.630Z,3.99
2024-02-24T06:54:53.954Z,3.97
2024-02-24T06:57:22.476Z,3.95
2024-02-24T06:59:50.785Z,3.94
2024-02-24T07:02:19.497Z,3.94
2024-02-24T07:04:51.928Z,3.92
2024-02-24T07:07:20.755Z,3.90
2024-02-24T07:09:49.534Z,3.91
2024-02-24T07:12:17.953Z,3.90
2024-02-24T07:14:47.265Z,3.90
2024-02-24T07:17:15.571Z,3.89
2024-02-24T07:19:44.193Z,3.87
2024-02-24T07:22:17.512Z,3.86
2024-02-24T07:24:45.710Z,3.84
2024-02-24T07:27:14.167Z,3.83
2024-02-24T07:29:42.551Z,3.80
2024-02-24T07:32:11.171Z,3.79
2024-02-24T07:34:39.816Z,3.77
2024-02-24T07:37:08.267Z,3.76
2024-02-24T07:39:37.934Z,3.76
2024-02-24T07:42:06.696Z,3.75
2024-02-24T07:44:35.124Z,3.74
2024-02-24T07:47:04.908Z,3.72
2024-02-24T07:49:33.214Z,3.71
2024-02-24T07:52:01.552Z,3.68
2024-02-24T07:54:29.816Z,3.66
2024-02-24T07:56:58.099Z,3.64
2024-02-24T07:59:26.453Z,3.64
2024-02-24T08:01:54.814Z,3.64
2024-02-24T08:04:23.121Z,3.64
2024-02-24T08:06:51.580Z,3.62
2024-02-24T08:09:37.926Z,3.61
2024-02-24T08:12:07.526Z,3.59
2024-02-24T08:14:37.398Z,3.57
2024-02-24T08:17:08.099Z,3.54
2024-02-24T08:19:37.635Z,3.52
2024-02-24T08:22:06.721Z,3.50
2024-02-24T08:24:35.728Z,3.49
2024-02-24T08:27:05.043Z,3.47
2024-02-24T08:29:34.506Z,3.44
2024-02-24T08:32:08.546Z,3.44
2024-02-24T08:34:37.552Z,3.44
2024-02-24T08:43:50.424Z,3.41
2024-02-24T08:46:21.608Z,3.41
2024-02-24T08:49:06.759Z,3.39
2024-02-24T08:51:35.779Z,3.37
2024-02-24T08:54:04.968Z,3.37
2024-02-24T08:56:34.720Z,3.33
2024-02-24T08:59:03.848Z,3.30
2024-02-24T09:01:32.770Z,3.29
2024-02-24T09:04:03.818Z,3.29
2024-02-24T09:06:33.671Z,3.29
2024-02-24T09:09:02.838Z,3.28
2024-02-24T09:11:32.014Z,3.27
2024-02-24T09:14:01.444Z,3.27
2024-02-24T09:16:30.246Z,3.27
2024-02-24T09:19:00.817Z,3.27
2024-02-24T09:21:33.369Z,3.28
2024-02-24T09:24:02.735Z,3.28
2024-02-24T09:26:31.768Z,3.26
2024-02-24T09:29:00.649Z,3.23
2024-02-24T09:31:30.316Z,3.24
2024-02-24T09:34:00.212Z,3.24
2024-02-24T09:36:31.061Z,3.24
2024-02-24T09:39:02.379Z,3.22
2024-02-24T09:41:31.731Z,3.23
2024-02-24T09:44:00.762Z,3.23
2024-02-24T09:46:31.026Z,3.24
2024-02-24T09:49:02.299Z,3.25
2024-02-24T09:51:32.515Z,3.26
2024-02-24T09:54:01.613Z,3.26
2024-02-24T09:56:33.005Z,3.25
2024-02-24T09:59:05.022Z,3.24
2024-02-24T10:01:38.618Z,3.24
2024-02-24T10:04:09.207Z,3.24
2024-02-24T10:06:41.995Z,3.25
2024-02-24T10:09:11.225Z,3.25
2024-02-24T10:11:42.213Z,3.24
2024-02-24T10:14:11.833Z,3.23
2024-02-24T10:16:41.731Z,3.23
2024-02-24T10:19:11.042Z,3.21
2024-02-24T10:21:40.128Z,3.22
2024-02-24T10:24:09.200Z,3.22
2024-02-24T10:26:38.143Z,3.23
2024-02-24T10:29:10.104Z,3.23
2024-02-24T10:31:39.655Z,3.25
2024-02-24T10:34:08.908Z,3.26
2024-02-24T10:36:39.262Z,3.26
2024-02-24T10:39:09.494Z,3.28
2024-02-24T10:41:39.402Z,3.27
2024-02-24T10:44:18.751Z,3.25
2024-02-24T10:46:52.445Z,3.25
2024-02-24T10:52:36.554Z,3.26
2024-02-24T10:55:06.990Z,3.26
2024-02-24T10:57:38.363Z,3.23
2024-02-24T11:00:34.023Z,3.23
2024-02-24T11:03:06.152Z,3.24
2024-02-24T11:05:36.985Z,3.22
2024-02-24T11:08:26.102Z,3.20
2024-02-24T11:10:56.017Z,3.20
2024-02-24T11:13:24.958Z,3.22
2024-02-24T11:15:57.515Z,3.25
2024-02-24T11:18:51.554Z,3.26
2024-02-24T11:22:04.797Z,3.26
2024-02-24T11:24:38.999Z,3.27
2024-02-24T11:27:08.609Z,3.27
2024-02-24T11:29:40.541Z,3.26
2024-02-24T11:32:15.301Z,3.25
2024-02-24T11:34:48.517Z,3.24
2024-02-24T11:37:22.528Z,3.22
2024-02-24T11:39:53.937Z,3.21
2024-02-24T11:42:25.674Z,3.20
2024-02-24T11:44:56.282Z,3.19
2024-02-24T11:47:42.623Z,3.18
2024-02-24T11:50:11.978Z,3.17
2024-02-24T11:52:41.350Z,3.16
2024-02-24T11:55:10.929Z,3.15
2024-02-24T11:57:40.026Z,3.17
2024-02-24T12:00:10.853Z,3.18
2024-02-24T12:02:40.416Z,3.16
2024-02-24T12:05:19.501Z,3.17
2024-02-24T12:07:49.093Z,3.16
2024-02-24T12:10:18.338Z,3.15
2024-02-24T12:12:48.061Z,3.14
2024-02-24T12:15:18.819Z,3.13
2024-02-24T12:17:49.327Z,3.10
2024-02-24T12:20:18.402Z,3.09
2024-02-24T12:22:47.491Z,3.07
2024-02-24T12:25:17.490Z,3.06
2024-02-24T12:27:46.739Z,3.05
2024-02-24T12:30:16.053Z,3.06
2024-02-24T12:32:46.569Z,3.06
2024-02-24T12:35:19.231Z,3.07
2024-02-24T12:37:49.144Z,3.08
2024-02-24T12:40:38.898Z,3.07
2024-02-24T12:43:09.759Z,3.06
2024-02-24T12:45:39.280Z,3.06
2024-02-24T12:48:10.100Z,3.06
2024-02-24T12:50:39.458Z,3.03
2024-02-24T12:53:10.424Z,3.03
2024-02-24T12:55:39.414Z,3.03
2024-02-24T12:58:08.541Z,3.03
2024-02-24T13:00:42.121Z,3.04
2024-02-24T13:03:11.306Z,3.02
2024-02-24T13:05:40.461Z,3.01
2024-02-24T13:08:11.781Z,3.02
2024-02-24T13:10:40.794Z,3.03
2024-02-24T13:13:09.857Z,3.02
2024-02-24T13:15:38.846Z,3.02
2024-02-24T13:18:09.125Z,3.02
2024-02-24T13:20:39.691Z,3.01
2024-02-24T13:23:08.799Z,3.01
2024-02-24T13:25:37.684Z,3.01
2024-02-24T13:28:09.271Z,3.02
2024-02-24T13:30:38.254Z,3.02
2024-02-24T13:33:07.606Z,3.03
2024-02-24T13:35:37.367Z,3.04
2024-02-24T13:38:06.384Z,3.03
2024-02-24T13:40:35.580Z,3.03
2024-02-24T13:43:05.391Z,3.03
2024-02-24T13:45:34.260Z,3.02
2024-02-24T13:48:03.253Z,3.03
2024-02-24T13:50:32.510Z,3.00
2024-02-24T13:53:02.348Z,2.99
2024-02-24T13:55:31.432Z,2.98
2024-02-24T13:58:05.021Z,2.98
2024-02-24T14:00:34.172Z,2.98
2024-02-24T14:03:04.802Z,2.97
2024-02-24T14:06:09.115Z,2.97
2024-02-24T14:08:38.062Z,2.96
2024-02-24T14:11:07.729Z,2.97
2024-02-24T14:13:37.530Z,2.98
2024-02-24T14:16:06.546Z,2.98
2024-02-24T14:18:37.128Z,2.98
2024-02-24T14:21:06.618Z,3.00
2024-02-24T14:23:34.840Z,3.00
2024-02-24T14:26:03.206Z,3.01
2024-02-24T14:28:31.614Z,3.00
2024-02-24T14:31:00.524Z,2.98
2024-02-24T14:33:28.849Z,2.97
2024-02-24T14:35:57.576Z,2.96
2024-02-24T14:45:12.521Z,2.98
2024-02-24T14:47:41.889Z,2.98
2024-02-24T14:50:11.401Z,2.98
2024-02-24T14:52:41.933Z,2.99
2024-02-24T14:55:12.656Z,3.00
2024-02-24T14:57:42.072Z,3.02
2024-02-24T15:00:14.977Z,3.03
2024-02-24T15:02:52.974Z,3.03
2024-02-24T15:05:33.914Z,3.05
2024-02-24T15:08:04.617Z,3.07
2024-02-24T15:10:33.594Z,3.07
2024-02-24T15:13:02.535Z,3.08
2024-02-24T15:18:10.006Z,3.09
2024-02-24T15:20:39.014Z,3.11
2024-02-24T15:23:08.869Z,3.13
2024-02-24T15:25:37.796Z,3.15
2024-02-24T15:28:07.717Z,3.16
2024-02-24T15:30:36.903Z,3.18
2024-02-24T15:33:07.120Z,3.21
2024-02-24T15:35:36.348Z,3.24
2024-02-24T15:38:07.780Z,3.25
2024-02-24T15:40:39.796Z,3.24
2024-02-24T15:43:10.953Z,3.26
2024-02-24T15:45:40.560Z,3.29
2024-02-24T15:48:10.056Z,3.31
2024-02-24T15:50:39.087Z,3.33
2024-02-24T15:53:08.323Z,3.33
2024-02-24T15:55:37.407Z,3.35
2024-02-24T15:58:06.922Z,3.36
2024-02-24T16:00:35.876Z,3.38
2024-02-24T16:03:05.561Z,3.38
2024-02-24T16:05:34.760Z,3.40
2024-02-24T16:08:04.150Z,3.43
2024-02-24T16:10:33.318Z,3.43
2024-02-24T16:16:27.349Z,3.46
2024-02-24T16:18:56.461Z,3.49
2024-02-24T16:21:25.675Z,3.51
2024-02-24T16:23:54.794Z,3.53
2024-02-24T16:26:23.908Z,3.55
2024-02-24T16:28:53.185Z,3.59
2024-02-24T16:31:22.551Z,3.64
2024-02-24T16:33:54.614Z,3.69
2024-02-24T16:36:25.811Z,3.71
2024-02-24T16:38:57.818Z,3.75
2024-02-24T16:41:26.979Z,3.77
2024-02-24T16:43:56.063Z,3.79
2024-02-24T16:46:25.274Z,3.80
2024-02-24T16:48:55.290Z,3.83
2024-02-24T16:51:24.444Z,3.87
2024-02-24T16:53:53.585Z,3.90
2024-02-24T16:56:22.898Z,3.91
2024-02-24T16:58:52.876Z,3.90
2024-02-24T17:01:23.737Z,3.90
2024-02-24T17:03:53.194Z,3.91
2024-02-24T17:06:23.350Z,3.90
2024-02-24T17:08:52.885Z,3.87
2024-02-24T17:14:00.479Z,3.83
2024-02-24T17:16:30.267Z,3.83
2024-02-24T17:19:02.545Z,3.81
2024-02-24T17:21:32.495Z,3.79
2024-02-24T17:24:01.949Z,3.81
2024-02-24T17:26:31.347Z,3.80
2024-02-24T17:29:00.444Z,3.79
2024-02-24T17:31:29.966Z,3.80
2024-02-24T17:33:59.041Z,3.85
2024-02-24T17:36:28.078Z,3.91
2024-02-24T17:38:57.074Z,3.93
2024-02-24T17:41:26.267Z,3.92
2024-02-24T17:43:55.248Z,3.90
2024-02-24T17:46:25.067Z,3.90
2024-02-24T17:48:54.321Z,3.92
2024-02-24T17:51:25.849Z,3.99
2024-02-24T17:53:55.018Z,4.05
2024-02-24T17:56:24.307Z,4.06
2024-02-24T17:58:54.029Z,4.07
2024-02-24T18:01:23.773Z,4.10
2024-02-24T18:03:52.951Z,4.10
2024-02-24T18:06:22.180Z,4.14
2024-02-24T18:08:51.670Z,4.12
2024-02-24T18:11:22.168Z,4.15
2024-02-24T18:13:51.917Z,4.18
2024-02-24T18:16:21.315Z,4.17
2024-02-24T18:18:51.715Z,4.13
2024-02-24T18:21:21.402Z,4.11
2024-02-24T18:23:50.851Z,4.07
2024-02-24T18:26:20.515Z,4.08
2024-02-24T18:28:49.875Z,4.11
2024-02-24T18:31:19.491Z,4.16
2024-02-24T18:33:48.987Z,4.22
2024-02-24T18:36:20.103Z,4.21
2024-02-24T18:38:50.371Z,4.28
2024-02-24T18:44:24.690Z,4.41
2024-02-24T18:46:54.412Z,4.41
2024-02-24T18:49:25.032Z,4.49
2024-02-24T18:51:58.714Z,4.59
2024-02-24T18:54:30.424Z,4.60
2024-02-24T18:57:00.490Z,4.53
2024-02-24T18:59:30.015Z,4.53
2024-02-24T19:01:59.256Z,4.58
2024-02-24T19:04:30.820Z,4.57
2024-02-24T19:07:00.135Z,4.56
2024-02-24T19:09:30.130Z,4.60
2024-02-24T19:12:00.075Z,4.53
2024-02-24T19:17:11.903Z,4.43
2024-02-24T19:19:41.828Z,4.44
2024-02-24T19:25:16.476Z,4.39
2024-02-24T19:27:48.178Z,4.41
2024-02-24T19:30:17.792Z,4.41
2024-02-24T19:32:47.661Z,4.43
2024-02-24T19:35:17.408Z,4.46
2024-02-24T19:37:47.124Z,4.48
2024-02-24T19:40:17.001Z,4.46
2024-02-24T19:42:47.353Z,4.47
2024-02-24T19:45:16.785Z,4.38
2024-02-24T19:47:46.100Z,4.31
2024-02-24T19:50:15.554Z,4.31
2024-02-24T19:52:45.355Z,4.32
2024-02-24T19:55:14.496Z,4.29
2024-02-24T19:57:44.080Z,4.24
2024-02-24T20:00:14.825Z,4.24
2024-02-24T20:02:44.329Z,4.14
2024-02-24T20:05:13.746Z,3.98
2024-02-24T20:07:42.826Z,3.89
2024-02-24T20:10:12.056Z,3.88
2024-02-24T20:12:41.240Z,3.86
2024-02-24T20:15:11.664Z,3.87
2024-02-24T20:17:40.943Z,3.74
2024-02-24T20:20:10.597Z,3.45
2024-02-24T20:22:43.338Z,3.06
2024-02-24T20:25:12.665Z,2.89
2024-02-24T20:27:41.854Z,2.84
2024-02-24T20:30:14.580Z,2.77
2024-02-24T20:32:43.751Z,2.66
2024-02-24T20:35:13.082Z,2.58
2024-02-24T20:37:42.221Z,2.58
2024-02-24T20:40:12.395Z,2.57
2024-02-24T20:42:41.403Z,2.45
2024-02-24T20:45:11.309Z,2.24
2024-02-24T20:47:40.321Z,1.98
2024-02-24T20:50:10.039Z,1.78
2024-02-24T20:52:39.324Z,1.66
2024-02-24T20:55:09.281Z,1.51
2024-02-24T20:57:38.129Z,1.39
2024-02-24T21:00:08.025Z,1.23
2024-02-24T21:02:38.561Z,1.09
2024-02-24T21:05:08.379Z,0.97
2024-02-24T21:07:37.233Z,0.87
2024-02-24T21:10:06.314Z,0.78
2024-02-24T21:12:35.560Z,0.72
2024-02-24T21:15:04.925Z,0.61
2024-02-24T21:17:33.891Z,0.46
2024-02-24T21:20:07.121Z,0.30
2024-02-24T21:22:37.152Z,0.18
2024-02-24T21:25:09.315Z,0.11
2024-02-24T21:27:38.876Z,0.07
2024-02-24T21:30:09.479Z,-0.01
2024-02-24T21:32:39.388Z,-0.07
2024-02-24T21:35:09.146Z,-0.12
2024-02-24T21:37:38.446Z,-0.17
2024-02-24T21:40:08.967Z,-0.20
2024-02-24T21:42:38.005Z,-0.21
2024-02-24T21:45:08.008Z,-0.26
2024-02-24T21:51:03.021Z,-0.50
2024-02-24T21:56:57.920Z,-0.54
2024-02-24T21:59:26.534Z,-0.57
2024-02-24T22:01:54.842Z,-0.65
2024-02-24T22:04:26.403Z,-0.71
2024-02-24T22:06:55.781Z,-0.78
2024-02-24T22:09:24.280Z,-0.86
2024-02-24T22:11:52.849Z,-0.95
2024-02-24T22:14:23.021Z,-1.02
2024-02-24T22:16:51.461Z,-1.06
2024-02-24T22:19:19.951Z,-1.09
2024-02-24T22:21:48.826Z,-1.10
2024-02-24T22:24:17.425Z,-1.13
2024-02-24T22:26:48.921Z,-1.19
2024-02-24T22:29:18.630Z,-1.21
2024-02-24T22:31:48.203Z,-1.23
2024-02-24T22:34:17.192Z,-1.27
2024-02-24T22:36:45.522Z,-1.31
2024-02-24T22:39:13.920Z,-1.37
2024-02-24T22:41:42.575Z,-1.48
2024-02-24T22:44:11.035Z,-1.53
2024-02-24T22:46:40.295Z,-1.51
2024-02-24T22:49:08.890Z,-1.48
2024-02-24T22:51:37.548Z,-1.48
2024-02-24T22:54:06.043Z,-1.49
2024-02-24T22:56:36.304Z,-1.47
2024-02-24T22:59:05.648Z,-1.48
2024-02-24T23:01:34.338Z,-1.56
2024-02-24T23:04:04.888Z,-1.61
2024-02-24T23:06:33.853Z,-1.64
2024-02-24T23:09:02.759Z,-1.67
2024-02-24T23:11:36.168Z,-1.69
2024-02-24T23:14:09.812Z,-1.66
2024-02-24T23:16:39.657Z,-1.66
2024-02-24T23:19:08.947Z,-1.70
2024-02-24T23:21:38.147Z,-1.75
2024-02-24T23:24:07.523Z,-1.79
2024-02-24T23:26:36.572Z,-1.79
2024-02-24T23:29:05.250Z,-1.78
2024-02-24T23:31:34.308Z,-1.79
2024-02-24T23:34:04.413Z,-1.81
2024-02-24T23:36:32.897Z,-1.81
2024-02-24T23:39:07.716Z,-1.86
2024-02-24T23:41:37.053Z,-1.88
2024-02-24T23:44:06.028Z,-1.84
2024-02-24T23:46:34.481Z,-1.82
2024-02-24T23:49:02.779Z,-1.82
2024-02-24T23:51:33.168Z,-1.87
2024-02-24T23:54:01.718Z,-1.87
2024-02-24T23:56:32.763Z,-1.90
2024-02-24T23:59:01.948Z,-1.90
